CST,Max TemperatureF,Mean TemperatureF,Min TemperatureF,Max Dew PointF,MeanDew PointF,Min DewpointF,Max Humidity, Mean Humidity, Min Humidity, Max Sea Level PressureIn, Mean Sea Level PressureIn, Min Sea Level PressureIn, Max VisibilityMiles, Mean VisibilityMiles, Min VisibilityMiles, Max Wind SpeedMPH, Mean Wind SpeedMPH, Max Gust SpeedMPH,PrecipitationIn, CloudCover, Events, WindDirDegrees
2013-11-1,56,47,37,41,39,36,100,80,59,29.92,29.72,29.48,10,9,7,28,14,33,T,6,,311
2013-11-2,54,43,31,39,35,30,100,77,54,30.12,30.06,29.93,10,9,6,16,10,25,0.00,2,Snow,289
2013-11-3,55,42,29,36,32,29,100,69,38,30.09,29.94,29.80,10,10,10,41,23,53,0.00,0,,166
2013-11-4,51,39,27,45,38,27,92,77,61,30.19,29.94,29.81,10,10,8,29,13,37,0.04,4,Rain,240
2013-11-5,38,30,22,34,32,22,100,92,84,30.23,30.05,29.95,10,4,0,26,12,35,0.34,7,Fog-Rain-Snow,9
2013-11-6,36,31,26,32,27,24,100,82,64,30.25,30.16,29.99,10,9,2,28,12,33,T,3,Snow,297
2013-11-7,38,33,28,30,28,24,100,82,64,30.34,30.25,30.19,10,8,0,18,12,,0.00,4,Fog,268
2013-11-8,52,39,26,41,32,21,89,75,60,30.24,29.90,29.68,10,10,10,35,16,42,0.00,2,,197
2013-11-9,49,40,31,39,35,26,83,74,65,30.34,30.04,29.78,10,10,10,29,17,35,0.00,3,,291
2013-11-10,42,32,22,31,27,21,92,79,65,30.41,30.29,30.14,10,10,10,16,9,19,0.00,3,,230
2013-11-11,39,25,10,32,19,6,92,80,67,30.79,30.41,30.13,10,7,0,33,18,39,T,5,Fog-Snow,350
2013-11-12,28,15,2,15,9,-1,88,73,57,30.88,30.75,30.52,10,10,10,16,9,22,0.00,0,,248
2013-11-13,54,39,23,33,24,12,70,56,41,30.49,30.15,29.93,10,10,10,30,18,39,0.00,0,,209
2013-11-14,52,41,30,44,34,28,100,85,70,29.92,29.88,29.83,10,10,6,15,8,19,T,2,Rain,235
2013-11-15,58,43,28,42,35,27,100,76,51,29.89,29.79,29.61,10,9,6,20,11,24,0.00,0,,184
2013-11-16,60,50,40,54,43,31,100,81,62,29.59,29.38,29.22,10,6,2,24,15,30,0.00,4,,179
2013-11-17,51,44,37,40,36,31,93,77,61,29.94,29.57,29.35,10,9,5,28,13,34,T,4,Rain,300
2013-11-18,45,34,23,31,26,21,88,69,49,30.28,30.15,29.94,10,10,9,21,10,25,0.00,2,,308
2013-11-19,54,38,22,33,30,21,96,71,45,30.24,30.04,29.89,10,10,8,32,21,42,0.00,1,,162
2013-11-20,50,40,29,35,32,28,100,76,52,30.01,29.90,29.84,10,8,0,29,17,36,0.00,3,Fog,159
2013-11-21,34,26,17,33,19,13,100,84,68,30.58,30.34,30.03,10,6,0,31,21,38,T,8,Fog-Snow,341
2013-11-22,32,18,3,13,9,-1,88,64,39,30.69,30.62,30.52,10,10,3,28,12,35,T,1,Snow,304
2013-11-23,18,10,2,4,0,-3,87,68,49,30.91,30.83,30.71,10,10,10,25,11,32,0.00,0,,327
2013-11-24,33,18,2,15,9,-2,87,67,47,30.75,30.42,30.12,10,10,10,31,17,38,0.00,1,,194
2013-11-25,44,34,24,28,22,16,75,62,49,30.16,30.09,30.03,10,10,10,25,15,32,0.00,4,,278
2013-11-26,33,21,9,22,10,4,76,59,42,30.44,30.31,30.11,10,10,10,31,20,39,0.00,3,,338
2013-11-27,27,15,2,11,7,-1,95,71,46,30.43,30.26,30.05,10,10,10,25,10,29,0.00,0,,184
2013-11-28,30,19,7,16,9,2,92,71,50,30.54,30.35,30.06,10,10,10,24,12,29,0.00,0,,320
2013-11-29,35,20,4,22,14,1,87,69,51,30.54,30.37,30.13,10,10,9,26,13,32,0.00,0,,176
2013-11-30,48,34,20,29,24,19,92,69,45,30.19,30.11,30.07,10,9,7,16,10,20,0.00,0,,300